DLH966 EDDF-EGNT
Flight info
| Callsign | DLH966 |
|---|---|
| Flight time | 1h 32m |
| Altitude | 38000 |
| Route | OBOKA3M OBOKA Z28 DIBIR DCT BUDIP DCT MIMVA L602 NALAX L46 RIMTO RIMTO2N |
| Aircraft | A319/M-SDE3FGHIRWY/LB1 |
Departure
| Time | 2026-04-18 08:11 |
|---|---|
| Airport | Frankfurt Main Airport (EDDF) |
Arrival
| Time | 2026-04-18 09:43 |
|---|---|
| Airport | Newcastle International Airport (EGNT) |
| Time | Latitude | Longitude | Altitude | Speed | Heading |
|---|---|---|---|---|---|
| 2026-04-18 07:36 | 50.04958 | 8.59877 | 370 ft | 0 kts | 297° |
| 2026-04-18 08:02 | 50.04952 | 8.59897 | 371 ft | 3 kts | 298° |
| 2026-04-18 08:02 | 50.04939 | 8.59922 | 370 ft | 3 kts | 307° |
| 2026-04-18 08:02 | 50.04930 | 8.59946 | 370 ft | 3 kts | 252° |
| 2026-04-18 08:03 | 50.04940 | 8.59978 | 370 ft | 3 kts | 249° |
| 2026-04-18 08:03 | 50.04938 | 8.59967 | 370 ft | 3 kts | 249° |
| 2026-04-18 08:03 | 50.04929 | 8.59932 | 370 ft | 3 kts | 249° |
| 2026-04-18 08:03 | 50.04921 | 8.59898 | 370 ft | 3 kts | 250° |
| 2026-04-18 08:04 | 50.04921 | 8.59894 | 370 ft | 0 kts | 250° |
| 2026-04-18 08:06 | 50.04920 | 8.59893 | 370 ft | 1 kts | 250° |
| 2026-04-18 08:06 | 50.04912 | 8.59860 | 370 ft | 6 kts | 250° |
| 2026-04-18 08:06 | 50.04892 | 8.59775 | 370 ft | 11 kts | 250° |
| 2026-04-18 08:06 | 50.04862 | 8.59650 | 370 ft | 13 kts | 249° |
| 2026-04-18 08:07 | 50.04849 | 8.59506 | 370 ft | 14 kts | 283° |
| 2026-04-18 08:07 | 50.04865 | 8.59347 | 368 ft | 16 kts | 253° |
| 2026-04-18 08:07 | 50.04825 | 8.59177 | 371 ft | 17 kts | 249° |
| 2026-04-18 08:07 | 50.04781 | 8.58998 | 370 ft | 18 kts | 250° |
| 2026-04-18 08:08 | 50.04738 | 8.58816 | 370 ft | 17 kts | 247° |
| 2026-04-18 08:08 | 50.04638 | 8.58756 | 370 ft | 16 kts | 187° |
| 2026-04-18 08:08 | 50.04543 | 8.58663 | 371 ft | 17 kts | 220° |
| 2026-04-18 08:08 | 50.04471 | 8.58521 | 370 ft | 17 kts | 250° |
| 2026-04-18 08:09 | 50.04466 | 8.58500 | 370 ft | 0 kts | 249° |
| 2026-04-18 08:10 | 50.04465 | 8.58497 | 370 ft | 2 kts | 249° |
| 2026-04-18 08:10 | 50.04404 | 8.58245 | 370 ft | 66 kts | 249° |
| 2026-04-18 08:10 | 50.04148 | 8.57172 | 368 ft | 142 kts | 250° |
| 2026-04-18 08:11 | 50.03766 | 8.55543 | 697 ft | 169 kts | 250° |
| 2026-04-18 08:11 | 50.03356 | 8.53809 | 1497 ft | 170 kts | 251° |
| 2026-04-18 08:11 | 50.02926 | 8.52020 | 2143 ft | 187 kts | 250° |
| 2026-04-18 08:11 | 50.02292 | 8.50144 | 2692 ft | 206 kts | 226° |
| 2026-04-18 08:12 | 50.00996 | 8.49153 | 3481 ft | 212 kts | 195° |
| 2026-04-18 08:12 | 49.99590 | 8.48555 | 4556 ft | 208 kts | 195° |
| 2026-04-18 08:12 | 49.98192 | 8.47961 | 5568 ft | 209 kts | 195° |
| 2026-04-18 08:12 | 49.96784 | 8.47362 | 6535 ft | 211 kts | 196° |
| 2026-04-18 08:13 | 49.95345 | 8.46737 | 7281 ft | 223 kts | 197° |
| 2026-04-18 08:13 | 49.93781 | 8.46027 | 7845 ft | 243 kts | 197° |
| 2026-04-18 08:13 | 49.92181 | 8.45062 | 8723 ft | 251 kts | 211° |
| 2026-04-18 08:13 | 49.90849 | 8.43282 | 9701 ft | 256 kts | 232° |
| 2026-04-18 08:14 | 49.89890 | 8.40942 | 10664 ft | 259 kts | 240° |
| 2026-04-18 08:14 | 49.89061 | 8.38487 | 11598 ft | 261 kts | 250° |
| 2026-04-18 08:14 | 49.88647 | 8.35727 | 12421 ft | 271 kts | 265° |
| 2026-04-18 08:14 | 49.88703 | 8.32676 | 12796 ft | 294 kts | 275° |
| 2026-04-18 08:15 | 49.88899 | 8.29383 | 13210 ft | 315 kts | 278° |
| 2026-04-18 08:15 | 49.89522 | 8.26081 | 13983 ft | 323 kts | 294° |
| 2026-04-18 08:15 | 49.90717 | 8.23104 | 14771 ft | 328 kts | 305° |
| 2026-04-18 08:15 | 49.92083 | 8.20247 | 15565 ft | 331 kts | 305° |
| 2026-04-18 08:16 | 49.93442 | 8.17401 | 16367 ft | 334 kts | 306° |
| 2026-04-18 08:16 | 49.95036 | 8.14743 | 17140 ft | 340 kts | 316° |
| 2026-04-18 08:16 | 49.96834 | 8.12338 | 17907 ft | 343 kts | 317° |
| 2026-04-18 08:16 | 49.98661 | 8.09904 | 18643 ft | 347 kts | 317° |
| 2026-04-18 08:17 | 50.00505 | 8.07445 | 19298 ft | 351 kts | 317° |
| 2026-04-18 08:17 | 50.02372 | 8.04951 | 19957 ft | 355 kts | 317° |
| 2026-04-18 08:17 | 50.04253 | 8.02434 | 20619 ft | 359 kts | 317° |
| 2026-04-18 08:17 | 50.06157 | 7.99881 | 21266 ft | 362 kts | 317° |
| 2026-04-18 08:18 | 50.08078 | 7.97301 | 21911 ft | 367 kts | 317° |
| 2026-04-18 08:18 | 50.10024 | 7.94684 | 22553 ft | 371 kts | 317° |
| 2026-04-18 08:18 | 50.11992 | 7.92041 | 23180 ft | 375 kts | 317° |
| 2026-04-18 08:18 | 50.13980 | 7.89367 | 23792 ft | 379 kts | 317° |
| 2026-04-18 08:19 | 50.15987 | 7.86664 | 24341 ft | 383 kts | 316° |
| 2026-04-18 08:19 | 50.17984 | 7.83968 | 24869 ft | 386 kts | 316° |
| 2026-04-18 08:19 | 50.20022 | 7.81210 | 25409 ft | 388 kts | 316° |
| 2026-04-18 08:19 | 50.22068 | 7.78437 | 25952 ft | 390 kts | 316° |
| 2026-04-18 08:20 | 50.24132 | 7.75663 | 26462 ft | 394 kts | 318° |
| 2026-04-18 08:20 | 50.26425 | 7.73254 | 26958 ft | 401 kts | 328° |
| 2026-04-18 08:20 | 50.28970 | 7.71401 | 27456 ft | 406 kts | 333° |
| 2026-04-18 08:20 | 50.31575 | 7.69632 | 27946 ft | 409 kts | 333° |
| 2026-04-18 08:21 | 50.34197 | 7.67845 | 28421 ft | 412 kts | 332° |
| 2026-04-18 08:21 | 50.36833 | 7.66039 | 28906 ft | 415 kts | 332° |
| 2026-04-18 08:21 | 50.39490 | 7.64215 | 29385 ft | 418 kts | 332° |
| 2026-04-18 08:21 | 50.42137 | 7.62394 | 29848 ft | 421 kts | 332° |
| 2026-04-18 08:22 | 50.44866 | 7.60512 | 30306 ft | 424 kts | 332° |
| 2026-04-18 08:22 | 50.47541 | 7.58664 | 30685 ft | 427 kts | 332° |
| 2026-04-18 08:22 | 50.50273 | 7.56776 | 31051 ft | 429 kts | 332° |
| 2026-04-18 08:22 | 50.53010 | 7.54886 | 31436 ft | 432 kts | 332° |
| 2026-04-18 08:23 | 50.55742 | 7.52901 | 31802 ft | 432 kts | 327° |
| 2026-04-18 08:23 | 50.58296 | 7.50419 | 32235 ft | 429 kts | 323° |
| 2026-04-18 08:23 | 50.60797 | 7.47848 | 32766 ft | 428 kts | 323° |
| 2026-04-18 08:23 | 50.63290 | 7.45299 | 33322 ft | 427 kts | 322° |
| 2026-04-18 08:24 | 50.65783 | 7.42753 | 33830 ft | 426 kts | 322° |
| 2026-04-18 08:24 | 50.68272 | 7.40202 | 34300 ft | 426 kts | 322° |
| 2026-04-18 08:24 | 50.70757 | 7.37651 | 34737 ft | 426 kts | 322° |
| 2026-04-18 08:24 | 50.73142 | 7.35009 | 35155 ft | 421 kts | 315° |
| 2026-04-18 08:25 | 50.75241 | 7.31834 | 35563 ft | 415 kts | 307° |
| 2026-04-18 08:25 | 50.76988 | 7.28241 | 35967 ft | 410 kts | 301° |
| 2026-04-18 08:25 | 50.78627 | 7.24556 | 36361 ft | 409 kts | 301° |
| 2026-04-18 08:25 | 50.80265 | 7.20883 | 36746 ft | 409 kts | 301° |
| 2026-04-18 08:26 | 50.81905 | 7.17217 | 37124 ft | 408 kts | 301° |
| 2026-04-18 08:26 | 50.83545 | 7.13545 | 37495 ft | 407 kts | 301° |
| 2026-04-18 08:26 | 50.85178 | 7.09877 | 37865 ft | 407 kts | 300° |
| 2026-04-18 08:26 | 50.86807 | 7.06209 | 38170 ft | 407 kts | 300° |
| 2026-04-18 08:27 | 50.88426 | 7.02552 | 38223 ft | 404 kts | 300° |
| 2026-04-18 08:27 | 50.91098 | 6.96515 | 38220 ft | 402 kts | 300° |
| 2026-04-18 08:28 | 50.94823 | 6.88082 | 38219 ft | 401 kts | 300° |
| 2026-04-18 08:28 | 50.97507 | 6.82003 | 38220 ft | 401 kts | 300° |
| 2026-04-18 08:29 | 51.00697 | 6.74752 | 38220 ft | 406 kts | 300° |
| 2026-04-18 08:29 | 51.03930 | 6.67360 | 38220 ft | 408 kts | 300° |
| 2026-04-18 08:30 | 51.07170 | 6.59932 | 38225 ft | 409 kts | 299° |
| 2026-04-18 08:30 | 51.10419 | 6.52474 | 38219 ft | 410 kts | 299° |
| 2026-04-18 08:31 | 51.13676 | 6.44979 | 38222 ft | 411 kts | 299° |
| 2026-04-18 08:31 | 51.16905 | 6.37510 | 38238 ft | 412 kts | 298° |
| 2026-04-18 08:32 | 51.20157 | 6.29992 | 38229 ft | 412 kts | 299° |
| 2026-04-18 08:32 | 51.23411 | 6.22452 | 38224 ft | 413 kts | 298° |
| 2026-04-18 08:33 | 51.26659 | 6.14882 | 38240 ft | 413 kts | 298° |
| 2026-04-18 08:33 | 51.29879 | 6.07273 | 38221 ft | 413 kts | 297° |
| 2026-04-18 08:34 | 51.33022 | 5.99560 | 38233 ft | 413 kts | 297° |
| 2026-04-18 08:34 | 51.36139 | 5.91835 | 38216 ft | 413 kts | 297° |
| 2026-04-18 08:35 | 51.39838 | 5.84692 | 38208 ft | 425 kts | 312° |
| 2026-04-18 08:35 | 51.44283 | 5.78434 | 38213 ft | 425 kts | 312° |
| 2026-04-18 08:36 | 51.48724 | 5.72149 | 38218 ft | 426 kts | 311° |
| 2026-04-18 08:36 | 51.53154 | 5.65824 | 38208 ft | 427 kts | 311° |
| 2026-04-18 08:37 | 51.57564 | 5.59509 | 38232 ft | 427 kts | 311° |
| 2026-04-18 08:37 | 51.62002 | 5.53146 | 38229 ft | 427 kts | 311° |
| 2026-04-18 08:38 | 51.66430 | 5.46776 | 38223 ft | 427 kts | 311° |
| 2026-04-18 08:38 | 51.70867 | 5.40384 | 38254 ft | 427 kts | 311° |
| 2026-04-18 08:39 | 51.75302 | 5.33976 | 38244 ft | 428 kts | 311° |
| 2026-04-18 08:39 | 51.79735 | 5.27552 | 38244 ft | 428 kts | 311° |
| 2026-04-18 08:40 | 51.84144 | 5.21154 | 38239 ft | 428 kts | 311° |
| 2026-04-18 08:40 | 51.88581 | 5.14694 | 38235 ft | 429 kts | 311° |
| 2026-04-18 08:41 | 51.93016 | 5.08215 | 38230 ft | 429 kts | 311° |
| 2026-04-18 08:41 | 51.97372 | 5.01833 | 38241 ft | 429 kts | 311° |
| 2026-04-18 08:42 | 52.01820 | 4.95297 | 38225 ft | 429 kts | 311° |
| 2026-04-18 08:42 | 52.06216 | 4.88822 | 38247 ft | 429 kts | 311° |
| 2026-04-18 08:43 | 52.10647 | 4.82282 | 38221 ft | 429 kts | 311° |
| 2026-04-18 08:43 | 52.15070 | 4.75741 | 38212 ft | 430 kts | 311° |
| 2026-04-18 08:44 | 52.19497 | 4.69173 | 38233 ft | 430 kts | 311° |
| 2026-04-18 08:44 | 52.23911 | 4.62586 | 38229 ft | 430 kts | 311° |
| 2026-04-18 08:45 | 52.28314 | 4.56008 | 38227 ft | 432 kts | 311° |
| 2026-04-18 08:45 | 52.32745 | 4.49381 | 38215 ft | 431 kts | 311° |
| 2026-04-18 08:46 | 52.37152 | 4.42754 | 38215 ft | 430 kts | 311° |
| 2026-04-18 08:46 | 52.41564 | 4.36105 | 38216 ft | 431 kts | 311° |
| 2026-04-18 08:47 | 52.45977 | 4.29452 | 38231 ft | 431 kts | 311° |
| 2026-04-18 08:47 | 52.50384 | 4.22771 | 38219 ft | 431 kts | 310° |
| 2026-04-18 08:48 | 52.54777 | 4.16077 | 38218 ft | 431 kts | 311° |
| 2026-04-18 08:48 | 52.59153 | 4.09414 | 38215 ft | 431 kts | 311° |
| 2026-04-18 08:49 | 52.63547 | 4.02701 | 38211 ft | 431 kts | 310° |
| 2026-04-18 08:49 | 52.67941 | 3.95964 | 38226 ft | 431 kts | 310° |
| 2026-04-18 08:50 | 52.72337 | 3.89212 | 38230 ft | 432 kts | 311° |
| 2026-04-18 08:50 | 52.76729 | 3.82444 | 38221 ft | 432 kts | 310° |
| 2026-04-18 08:51 | 52.81118 | 3.75656 | 38206 ft | 432 kts | 310° |
| 2026-04-18 08:51 | 52.85506 | 3.68846 | 38203 ft | 432 kts | 310° |
| 2026-04-18 08:52 | 52.89860 | 3.62082 | 38210 ft | 432 kts | 310° |
| 2026-04-18 08:52 | 52.94252 | 3.55240 | 38207 ft | 433 kts | 310° |
| 2026-04-18 08:53 | 52.98637 | 3.48373 | 38220 ft | 434 kts | 310° |
| 2026-04-18 08:53 | 53.03026 | 3.41474 | 38202 ft | 434 kts | 310° |
| 2026-04-18 08:54 | 53.07342 | 3.34543 | 38197 ft | 431 kts | 305° |
| 2026-04-18 08:54 | 53.10420 | 3.26252 | 38202 ft | 416 kts | 286° |
| 2026-04-18 08:55 | 53.11865 | 3.17050 | 38182 ft | 410 kts | 278° |
| 2026-04-18 08:55 | 53.13092 | 3.07761 | 38178 ft | 411 kts | 278° |
| 2026-04-18 08:56 | 53.14320 | 2.98460 | 38199 ft | 412 kts | 278° |
| 2026-04-18 08:56 | 53.15541 | 2.89130 | 38192 ft | 412 kts | 278° |
| 2026-04-18 08:57 | 53.17366 | 2.75105 | 38194 ft | 413 kts | 278° |
| 2026-04-18 08:57 | 53.18568 | 2.65737 | 38193 ft | 413 kts | 278° |
| 2026-04-18 08:58 | 53.19754 | 2.56430 | 38196 ft | 413 kts | 278° |
| 2026-04-18 08:58 | 53.20937 | 2.47053 | 38216 ft | 413 kts | 278° |
| 2026-04-18 08:59 | 53.22122 | 2.37661 | 38210 ft | 413 kts | 278° |
| 2026-04-18 08:59 | 53.23300 | 2.28282 | 38216 ft | 413 kts | 278° |
| 2026-04-18 09:00 | 53.24470 | 2.18879 | 38208 ft | 413 kts | 277° |
| 2026-04-18 09:00 | 53.25630 | 2.09478 | 38196 ft | 413 kts | 277° |
| 2026-04-18 09:01 | 53.26788 | 2.00066 | 38222 ft | 413 kts | 277° |
| 2026-04-18 09:01 | 53.27923 | 1.90709 | 38205 ft | 414 kts | 277° |
| 2026-04-18 09:02 | 53.29063 | 1.81273 | 38202 ft | 414 kts | 277° |
| 2026-04-18 09:02 | 53.30195 | 1.71835 | 38199 ft | 414 kts | 277° |
| 2026-04-18 09:03 | 53.31323 | 1.62389 | 38198 ft | 414 kts | 277° |
| 2026-04-18 09:03 | 53.32441 | 1.52933 | 38225 ft | 414 kts | 277° |
| 2026-04-18 09:04 | 53.33658 | 1.43560 | 38219 ft | 415 kts | 279° |
| 2026-04-18 09:04 | 53.35071 | 1.34177 | 38208 ft | 416 kts | 280° |
| 2026-04-18 09:05 | 53.36489 | 1.24784 | 38205 ft | 416 kts | 279° |
| 2026-04-18 09:05 | 53.37848 | 1.15367 | 38206 ft | 415 kts | 279° |
| 2026-04-18 09:06 | 53.39174 | 1.05993 | 38206 ft | 416 kts | 279° |
| 2026-04-18 09:06 | 53.40507 | 0.96560 | 38226 ft | 416 kts | 279° |
| 2026-04-18 09:07 | 53.41842 | 0.87121 | 38220 ft | 416 kts | 279° |
| 2026-04-18 09:07 | 53.43171 | 0.77677 | 38216 ft | 416 kts | 279° |
| 2026-04-18 09:08 | 53.44477 | 0.68288 | 38213 ft | 415 kts | 279° |
| 2026-04-18 09:08 | 53.45775 | 0.58845 | 38204 ft | 415 kts | 279° |
| 2026-04-18 09:09 | 53.47072 | 0.49398 | 38216 ft | 415 kts | 279° |
| 2026-04-18 09:09 | 53.48358 | 0.39940 | 38203 ft | 414 kts | 279° |
| 2026-04-18 09:10 | 53.49629 | 0.30565 | 38198 ft | 414 kts | 278° |
| 2026-04-18 09:10 | 53.50905 | 0.21140 | 38196 ft | 414 kts | 278° |
| 2026-04-18 09:11 | 53.52174 | 0.11695 | 38187 ft | 414 kts | 278° |
| 2026-04-18 09:11 | 53.53431 | 0.02244 | 38188 ft | 414 kts | 278° |
| 2026-04-18 09:12 | 53.54679 | -0.07218 | 38212 ft | 414 kts | 278° |
| 2026-04-18 09:12 | 53.55715 | -0.15091 | 38211 ft | 414 kts | 278° |
| 2026-04-18 09:13 | 53.56949 | -0.24562 | 38211 ft | 414 kts | 278° |
| 2026-04-18 09:13 | 53.58175 | -0.34024 | 38207 ft | 414 kts | 278° |
| 2026-04-18 09:14 | 53.59397 | -0.43481 | 38209 ft | 413 kts | 278° |
| 2026-04-18 09:14 | 53.60607 | -0.52924 | 38223 ft | 410 kts | 278° |
| 2026-04-18 09:15 | 53.61792 | -0.62239 | 38217 ft | 408 kts | 278° |
| 2026-04-18 09:15 | 53.62976 | -0.71573 | 38211 ft | 406 kts | 278° |
| 2026-04-18 09:16 | 53.64137 | -0.80868 | 38178 ft | 405 kts | 278° |
| 2026-04-18 09:16 | 53.64714 | -0.85513 | 37913 ft | 403 kts | 278° |
| 2026-04-18 09:16 | 53.65287 | -0.90126 | 37646 ft | 401 kts | 278° |
| 2026-04-18 09:17 | 53.65861 | -0.94740 | 37379 ft | 401 kts | 277° |
| 2026-04-18 09:17 | 53.66429 | -0.99334 | 37122 ft | 400 kts | 277° |
| 2026-04-18 09:17 | 53.66995 | -1.03927 | 36885 ft | 400 kts | 277° |
| 2026-04-18 09:17 | 53.67557 | -1.08529 | 36634 ft | 401 kts | 277° |
| 2026-04-18 09:18 | 53.68118 | -1.13134 | 36387 ft | 401 kts | 277° |
| 2026-04-18 09:18 | 53.68677 | -1.17725 | 36026 ft | 397 kts | 277° |
| 2026-04-18 09:18 | 53.69230 | -1.22285 | 35502 ft | 395 kts | 277° |
| 2026-04-18 09:18 | 53.69771 | -1.26749 | 34975 ft | 392 kts | 277° |
| 2026-04-18 09:19 | 53.70313 | -1.31251 | 34414 ft | 391 kts | 277° |
| 2026-04-18 09:19 | 53.70983 | -1.35709 | 33795 ft | 394 kts | 284° |
| 2026-04-18 09:19 | 53.72123 | -1.39930 | 33203 ft | 397 kts | 294° |
| 2026-04-18 09:19 | 53.73721 | -1.43766 | 32639 ft | 403 kts | 304° |
| 2026-04-18 09:20 | 53.75750 | -1.47099 | 31987 ft | 411 kts | 314° |
| 2026-04-18 09:20 | 53.78156 | -1.49815 | 31318 ft | 418 kts | 322° |
| 2026-04-18 09:20 | 53.80648 | -1.52346 | 30658 ft | 417 kts | 321° |
| 2026-04-18 09:20 | 53.83134 | -1.54881 | 29961 ft | 417 kts | 321° |
| 2026-04-18 09:21 | 53.85607 | -1.57411 | 29314 ft | 413 kts | 321° |
| 2026-04-18 09:21 | 53.88053 | -1.59914 | 28669 ft | 409 kts | 321° |
| 2026-04-18 09:21 | 53.90486 | -1.62405 | 28047 ft | 404 kts | 321° |
| 2026-04-18 09:21 | 53.92878 | -1.64858 | 27431 ft | 400 kts | 321° |
| 2026-04-18 09:22 | 53.95249 | -1.67297 | 26825 ft | 396 kts | 321° |
| 2026-04-18 09:22 | 53.97561 | -1.69688 | 26239 ft | 393 kts | 321° |
| 2026-04-18 09:22 | 53.99883 | -1.72097 | 25670 ft | 390 kts | 322° |
| 2026-04-18 09:22 | 54.02192 | -1.74490 | 25094 ft | 387 kts | 322° |
| 2026-04-18 09:23 | 54.04481 | -1.76856 | 24498 ft | 385 kts | 322° |
| 2026-04-18 09:23 | 54.06770 | -1.79217 | 23905 ft | 383 kts | 322° |
| 2026-04-18 09:23 | 54.09044 | -1.81570 | 23258 ft | 381 kts | 323° |
| 2026-04-18 09:23 | 54.11373 | -1.83735 | 22670 ft | 383 kts | 331° |
| 2026-04-18 09:24 | 54.13936 | -1.85125 | 22076 ft | 389 kts | 343° |
| 2026-04-18 09:24 | 54.16622 | -1.85575 | 21473 ft | 391 kts | 355° |
| 2026-04-18 09:24 | 54.19335 | -1.85070 | 20877 ft | 390 kts | 6° |
| 2026-04-18 09:24 | 54.21951 | -1.84226 | 20321 ft | 386 kts | 6° |
| 2026-04-18 09:25 | 54.24583 | -1.83393 | 19785 ft | 384 kts | 6° |
| 2026-04-18 09:25 | 54.27210 | -1.82572 | 19241 ft | 382 kts | 6° |
| 2026-04-18 09:25 | 54.29821 | -1.81762 | 18685 ft | 379 kts | 6° |
| 2026-04-18 09:25 | 54.32412 | -1.80954 | 18104 ft | 377 kts | 6° |
| 2026-04-18 09:26 | 54.34981 | -1.80146 | 17489 ft | 374 kts | 7° |
| 2026-04-18 09:26 | 54.37536 | -1.79340 | 16885 ft | 371 kts | 7° |
| 2026-04-18 09:26 | 54.40056 | -1.78544 | 16278 ft | 362 kts | 7° |
| 2026-04-18 09:26 | 54.42489 | -1.77772 | 15701 ft | 351 kts | 6° |
| 2026-04-18 09:27 | 54.44876 | -1.77018 | 15103 ft | 346 kts | 6° |
| 2026-04-18 09:27 | 54.47196 | -1.76286 | 14484 ft | 342 kts | 6° |
| 2026-04-18 09:27 | 54.49526 | -1.75548 | 13873 ft | 339 kts | 7° |
| 2026-04-18 09:27 | 54.51858 | -1.74810 | 13175 ft | 336 kts | 7° |
| 2026-04-18 09:28 | 54.54137 | -1.74088 | 12495 ft | 328 kts | 7° |
| 2026-04-18 09:28 | 54.56350 | -1.73382 | 11948 ft | 317 kts | 7° |
| 2026-04-18 09:28 | 54.58437 | -1.72714 | 11563 ft | 303 kts | 6° |
| 2026-04-18 09:28 | 54.60464 | -1.72062 | 11178 ft | 290 kts | 6° |
| 2026-04-18 09:29 | 54.62415 | -1.71434 | 10806 ft | 280 kts | 6° |
| 2026-04-18 09:29 | 54.64295 | -1.70829 | 10420 ft | 270 kts | 6° |
| 2026-04-18 09:29 | 54.66116 | -1.70248 | 10048 ft | 261 kts | 5° |
| 2026-04-18 09:29 | 54.67876 | -1.69687 | 9648 ft | 255 kts | 5° |
| 2026-04-18 09:30 | 54.69625 | -1.69134 | 9241 ft | 256 kts | 5° |
| 2026-04-18 09:30 | 54.71352 | -1.68578 | 9123 ft | 249 kts | 5° |
| 2026-04-18 09:30 | 54.73059 | -1.68021 | 9045 ft | 252 kts | 5° |
| 2026-04-18 09:30 | 54.74772 | -1.67462 | 8784 ft | 249 kts | 5° |
| 2026-04-18 09:31 | 54.76471 | -1.66893 | 8526 ft | 248 kts | 5° |
| 2026-04-18 09:31 | 54.78163 | -1.66326 | 8317 ft | 248 kts | 5° |
| 2026-04-18 09:31 | 54.79858 | -1.65765 | 8087 ft | 247 kts | 5° |
| 2026-04-18 09:31 | 54.81545 | -1.65199 | 7831 ft | 246 kts | 5° |
| 2026-04-18 09:32 | 54.83201 | -1.64645 | 7579 ft | 245 kts | 5° |
| 2026-04-18 09:32 | 54.84896 | -1.64077 | 7311 ft | 245 kts | 5° |
| 2026-04-18 09:32 | 54.86543 | -1.63525 | 7063 ft | 244 kts | 5° |
| 2026-04-18 09:32 | 54.88153 | -1.62541 | 6807 ft | 251 kts | 30° |
| 2026-04-18 09:33 | 54.89338 | -1.60276 | 6605 ft | 259 kts | 56° |
| 2026-04-18 09:33 | 54.90217 | -1.57529 | 6409 ft | 259 kts | 60° |
| 2026-04-18 09:33 | 54.91052 | -1.54760 | 6194 ft | 258 kts | 60° |
| 2026-04-18 09:33 | 54.91880 | -1.51985 | 5979 ft | 258 kts | 60° |
| 2026-04-18 09:34 | 54.92703 | -1.49221 | 5766 ft | 257 kts | 60° |
| 2026-04-18 09:34 | 54.93526 | -1.46461 | 5556 ft | 256 kts | 60° |
| 2026-04-18 09:34 | 54.94348 | -1.43711 | 5345 ft | 256 kts | 60° |
| 2026-04-18 09:34 | 54.95159 | -1.41006 | 5143 ft | 254 kts | 60° |
| 2026-04-18 09:35 | 54.95980 | -1.38275 | 4939 ft | 254 kts | 60° |
| 2026-04-18 09:35 | 54.96832 | -1.35581 | 4725 ft | 252 kts | 53° |
| 2026-04-18 09:35 | 54.98125 | -1.33655 | 4469 ft | 242 kts | 19° |
| 2026-04-18 09:35 | 54.99728 | -1.32970 | 4212 ft | 235 kts | 2° |
| 2026-04-18 09:36 | 55.01346 | -1.32621 | 3991 ft | 234 kts | 0° |
| 2026-04-18 09:36 | 55.02969 | -1.32293 | 3792 ft | 234 kts | 0° |
| 2026-04-18 09:36 | 55.04583 | -1.31975 | 3584 ft | 234 kts | 0° |
| 2026-04-18 09:36 | 55.06197 | -1.31676 | 3377 ft | 232 kts | 359° |
| 2026-04-18 09:37 | 55.07740 | -1.32063 | 3165 ft | 220 kts | 334° |
| 2026-04-18 09:37 | 55.09075 | -1.33156 | 3018 ft | 205 kts | 323° |
| 2026-04-18 09:37 | 55.10226 | -1.34457 | 2885 ft | 195 kts | 316° |
| 2026-04-18 09:37 | 55.10968 | -1.36305 | 2770 ft | 185 kts | 286° |
| 2026-04-18 09:38 | 55.11294 | -1.38460 | 2647 ft | 182 kts | 274° |
| 2026-04-18 09:38 | 55.11204 | -1.40654 | 2565 ft | 182 kts | 255° |
| 2026-04-18 09:38 | 55.10714 | -1.42701 | 2538 ft | 183 kts | 246° |
| 2026-04-18 09:38 | 55.10186 | -1.44716 | 2526 ft | 178 kts | 246° |
| 2026-04-18 09:39 | 55.09692 | -1.46598 | 2560 ft | 163 kts | 246° |
| 2026-04-18 09:39 | 55.09232 | -1.48351 | 2535 ft | 156 kts | 247° |
| 2026-04-18 09:39 | 55.08785 | -1.50056 | 2426 ft | 154 kts | 246° |
| 2026-04-18 09:39 | 55.08340 | -1.51748 | 2245 ft | 150 kts | 246° |
| 2026-04-18 09:40 | 55.07926 | -1.53321 | 2074 ft | 132 kts | 246° |
| 2026-04-18 09:40 | 55.07568 | -1.54683 | 1906 ft | 120 kts | 246° |
| 2026-04-18 09:40 | 55.07225 | -1.55988 | 1749 ft | 115 kts | 246° |
| 2026-04-18 09:40 | 55.06897 | -1.57230 | 1584 ft | 113 kts | 245° |
| 2026-04-18 09:41 | 55.06571 | -1.58468 | 1439 ft | 112 kts | 246° |
| 2026-04-18 09:41 | 55.06247 | -1.59696 | 1289 ft | 111 kts | 245° |
| 2026-04-18 09:41 | 55.05920 | -1.60926 | 1112 ft | 112 kts | 245° |
| 2026-04-18 09:41 | 55.05597 | -1.62155 | 965 ft | 111 kts | 246° |
| 2026-04-18 09:42 | 55.05271 | -1.63378 | 784 ft | 112 kts | 245° |
| 2026-04-18 09:42 | 55.04954 | -1.64597 | 659 ft | 109 kts | 245° |
| 2026-04-18 09:42 | 55.04634 | -1.65813 | 505 ft | 111 kts | 244° |
| 2026-04-18 09:42 | 55.04312 | -1.67030 | 355 ft | 110 kts | 245° |
| 2026-04-18 09:43 | 55.03996 | -1.68214 | 250 ft | 97 kts | 244° |
| 2026-04-18 09:43 | 55.03787 | -1.69004 | 253 ft | 49 kts | 245° |
| 2026-04-18 09:43 | 55.03661 | -1.69476 | 257 ft | 38 kts | 245° |
| 2026-04-18 09:43 | 55.03579 | -1.69856 | 261 ft | 28 kts | 270° |
| 2026-04-18 09:44 | 55.03592 | -1.70153 | 264 ft | 20 kts | 274° |
| 2026-04-18 09:44 | 55.03601 | -1.70358 | 267 ft | 13 kts | 273° |
| 2026-04-18 09:44 | 55.03595 | -1.70521 | 267 ft | 14 kts | 263° |
| 2026-04-18 09:44 | 55.03593 | -1.70682 | 267 ft | 10 kts | 274° |
| 2026-04-18 09:45 | 55.03633 | -1.70714 | 268 ft | 5 kts | 4° |
| 2026-04-18 09:45 | 55.03655 | -1.70712 | 267 ft | 2 kts | 4° |
| 2026-04-18 09:45 | 55.03660 | -1.70711 | 267 ft | 0 kts | 4° |